sensor_id;sensor_type;location;lat;lon;timestamp;P1;durP1;ratioP1;P2;durP2;ratioP2
54959;SDS011;40860;51.710;8.736;2023-05-07T00:02:45;9.88;;;8.88;;
54959;SDS011;40860;51.710;8.736;2023-05-07T00:06:48;10.15;;;9.07;;
54959;SDS011;40860;51.710;8.736;2023-05-07T00:10:51;10.32;;;9.30;;
54959;SDS011;40860;51.710;8.736;2023-05-07T00:14:53;11.15;;;9.95;;
54959;SDS011;40860;51.710;8.736;2023-05-07T00:18:58;13.02;;;9.98;;
54959;SDS011;40860;51.710;8.736;2023-05-07T00:23:01;12.25;;;10.98;;
54959;SDS011;40860;51.710;8.736;2023-05-07T00:27:04;14.75;;;11.68;;
54959;SDS011;40860;51.710;8.736;2023-05-07T00:31:06;14.40;;;11.57;;
54959;SDS011;40860;51.710;8.736;2023-05-07T00:35:11;14.75;;;13.25;;
54959;SDS011;40860;51.710;8.736;2023-05-07T00:39:13;15.85;;;13.65;;
54959;SDS011;40860;51.710;8.736;2023-05-07T00:43:16;15.43;;;13.57;;
54959;SDS011;40860;51.710;8.736;2023-05-07T00:47:19;14.80;;;13.15;;
54959;SDS011;40860;51.710;8.736;2023-05-07T00:51:24;15.75;;;14.18;;
54959;SDS011;40860;51.710;8.736;2023-05-07T00:55:28;15.48;;;13.88;;
54959;SDS011;40860;51.710;8.736;2023-05-07T00:59:32;17.67;;;15.63;;
54959;SDS011;40860;51.710;8.736;2023-05-07T01:03:36;17.73;;;15.40;;
54959;SDS011;40860;51.710;8.736;2023-05-07T01:07:41;15.80;;;14.20;;
54959;SDS011;40860;51.710;8.736;2023-05-07T01:11:44;16.95;;;15.20;;
54959;SDS011;40860;51.710;8.736;2023-05-07T01:15:48;19.05;;;15.90;;
54959;SDS011;40860;51.710;8.736;2023-05-07T01:19:52;18.10;;;15.70;;
54959;SDS011;40860;51.710;8.736;2023-05-07T01:23:57;22.25;;;16.48;;
54959;SDS011;40860;51.710;8.736;2023-05-07T01:28:01;19.30;;;16.67;;
54959;SDS011;40860;51.710;8.736;2023-05-07T01:32:08;20.20;;;17.25;;
54959;SDS011;40860;51.710;8.736;2023-05-07T01:36:12;20.45;;;16.45;;
54959;SDS011;40860;51.710;8.736;2023-05-07T01:40:18;19.60;;;17.30;;
54959;SDS011;40860;51.710;8.736;2023-05-07T01:44:21;21.13;;;17.60;;
54959;SDS011;40860;51.710;8.736;2023-05-07T01:48:25;19.38;;;17.38;;
54959;SDS011;40860;51.710;8.736;2023-05-07T01:52:28;20.35;;;18.10;;
54959;SDS011;40860;51.710;8.736;2023-05-07T01:56:33;19.65;;;17.60;;
54959;SDS011;40860;51.710;8.736;2023-05-07T02:00:37;19.75;;;17.40;;
54959;SDS011;40860;51.710;8.736;2023-05-07T02:04:41;19.95;;;16.98;;
54959;SDS011;40860;51.710;8.736;2023-05-07T02:08:46;20.77;;;16.95;;
54959;SDS011;40860;51.710;8.736;2023-05-07T02:12:51;22.50;;;18.23;;
54959;SDS011;40860;51.710;8.736;2023-05-07T02:16:54;19.33;;;16.95;;
54959;SDS011;40860;51.710;8.736;2023-05-07T02:20:58;20.25;;;17.35;;
54959;SDS011;40860;51.710;8.736;2023-05-07T02:25:01;21.13;;;18.38;;
54959;SDS011;40860;51.710;8.736;2023-05-07T02:29:05;21.35;;;18.08;;
54959;SDS011;40860;51.710;8.736;2023-05-07T02:33:08;20.65;;;18.17;;
54959;SDS011;40860;51.710;8.736;2023-05-07T02:37:15;21.98;;;18.50;;
54959;SDS011;40860;51.710;8.736;2023-05-07T02:41:18;23.40;;;18.83;;
54959;SDS011;40860;51.710;8.736;2023-05-07T02:45:22;25.35;;;18.30;;
54959;SDS011;40860;51.710;8.736;2023-05-07T02:49:27;23.08;;;19.63;;
54959;SDS011;40860;51.710;8.736;2023-05-07T02:53:31;21.50;;;18.98;;
54959;SDS011;40860;51.710;8.736;2023-05-07T02:57:34;23.23;;;19.42;;
54959;SDS011;40860;51.710;8.736;2023-05-07T03:01:41;21.63;;;18.92;;
54959;SDS011;40860;51.710;8.736;2023-05-07T03:05:47;22.90;;;18.92;;
54959;SDS011;40860;51.710;8.736;2023-05-07T03:09:50;25.02;;;19.13;;
54959;SDS011;40860;51.710;8.736;2023-05-07T03:13:54;23.88;;;19.17;;
54959;SDS011;40860;51.710;8.736;2023-05-07T03:17:59;24.45;;;19.42;;
54959;SDS011;40860;51.710;8.736;2023-05-07T03:22:05;22.65;;;19.90;;
54959;SDS011;40860;51.710;8.736;2023-05-07T03:26:08;32.35;;;20.73;;
54959;SDS011;40860;51.710;8.736;2023-05-07T03:30:12;26.17;;;21.30;;
54959;SDS011;40860;51.710;8.736;2023-05-07T03:34:20;25.45;;;20.00;;
54959;SDS011;40860;51.710;8.736;2023-05-07T03:38:24;25.55;;;20.75;;
54959;SDS011;40860;51.710;8.736;2023-05-07T03:42:28;25.10;;;21.30;;
54959;SDS011;40860;51.710;8.736;2023-05-07T03:46:33;26.15;;;21.02;;
54959;SDS011;40860;51.710;8.736;2023-05-07T03:50:38;24.30;;;20.38;;
54959;SDS011;40860;51.710;8.736;2023-05-07T03:54:41;27.98;;;21.52;;
54959;SDS011;40860;51.710;8.736;2023-05-07T03:58:48;29.67;;;22.13;;
54959;SDS011;40860;51.710;8.736;2023-05-07T04:02:51;30.95;;;22.45;;
54959;SDS011;40860;51.710;8.736;2023-05-07T04:07:01;28.13;;;22.38;;
54959;SDS011;40860;51.710;8.736;2023-05-07T04:11:09;29.75;;;22.42;;
54959;SDS011;40860;51.710;8.736;2023-05-07T04:15:12;28.48;;;22.02;;
54959;SDS011;40860;51.710;8.736;2023-05-07T04:19:15;29.25;;;23.23;;
54959;SDS011;40860;51.710;8.736;2023-05-07T04:23:23;30.33;;;23.58;;
54959;SDS011;40860;51.710;8.736;2023-05-07T04:27:28;26.88;;;21.98;;
54959;SDS011;40860;51.710;8.736;2023-05-07T04:31:31;28.60;;;23.02;;
54959;SDS011;40860;51.710;8.736;2023-05-07T04:35:37;28.85;;;23.55;;
54959;SDS011;40860;51.710;8.736;2023-05-07T04:39:42;31.70;;;24.08;;
54959;SDS011;40860;51.710;8.736;2023-05-07T04:43:45;29.00;;;22.80;;
54959;SDS011;40860;51.710;8.736;2023-05-07T04:47:51;30.75;;;24.00;;
54959;SDS011;40860;51.710;8.736;2023-05-07T04:51:54;32.53;;;24.13;;
54959;SDS011;40860;51.710;8.736;2023-05-07T04:55:59;29.40;;;23.85;;
54959;SDS011;40860;51.710;8.736;2023-05-07T05:00:09;29.95;;;23.40;;
54959;SDS011;40860;51.710;8.736;2023-05-07T05:04:17;31.00;;;23.52;;
54959;SDS011;40860;51.710;8.736;2023-05-07T05:08:21;28.35;;;22.98;;
54959;SDS011;40860;51.710;8.736;2023-05-07T05:12:25;32.55;;;23.55;;
54959;SDS011;40860;51.710;8.736;2023-05-07T05:16:29;28.48;;;22.17;;
54959;SDS011;40860;51.710;8.736;2023-05-07T05:20:32;28.40;;;23.48;;
54959;SDS011;40860;51.710;8.736;2023-05-07T05:24:42;29.77;;;23.25;;
54959;SDS011;40860;51.710;8.736;2023-05-07T05:28:47;29.25;;;22.40;;
54959;SDS011;40860;51.710;8.736;2023-05-07T05:32:53;27.10;;;21.15;;
54959;SDS011;40860;51.710;8.736;2023-05-07T05:37:01;26.17;;;21.23;;
54959;SDS011;40860;51.710;8.736;2023-05-07T05:41:04;27.65;;;21.30;;
54959;SDS011;40860;51.710;8.736;2023-05-07T05:45:10;26.95;;;21.10;;
54959;SDS011;40860;51.710;8.736;2023-05-07T05:49:13;25.27;;;21.60;;
54959;SDS011;40860;51.710;8.736;2023-05-07T05:53:16;25.60;;;20.27;;
54959;SDS011;40860;51.710;8.736;2023-05-07T05:57:19;24.40;;;20.58;;
54959;SDS011;40860;51.710;8.736;2023-05-07T06:01:24;24.85;;;20.17;;
54959;SDS011;40860;51.710;8.736;2023-05-07T06:05:29;24.15;;;20.08;;
54959;SDS011;40860;51.710;8.736;2023-05-07T06:09:32;27.00;;;20.50;;
54959;SDS011;40860;51.710;8.736;2023-05-07T06:13:35;24.08;;;19.65;;
54959;SDS011;40860;51.710;8.736;2023-05-07T06:17:40;24.38;;;20.40;;
54959;SDS011;40860;51.710;8.736;2023-05-07T06:21:44;22.63;;;19.45;;
54959;SDS011;40860;51.710;8.736;2023-05-07T06:25:48;22.10;;;18.95;;
54959;SDS011;40860;51.710;8.736;2023-05-07T06:29:53;25.92;;;20.27;;
54959;SDS011;40860;51.710;8.736;2023-05-07T06:33:57;23.45;;;18.85;;
54959;SDS011;40860;51.710;8.736;2023-05-07T06:38:06;22.70;;;19.30;;
54959;SDS011;40860;51.710;8.736;2023-05-07T06:42:10;21.75;;;18.48;;
54959;SDS011;40860;51.710;8.736;2023-05-07T06:46:16;21.45;;;17.55;;
54959;SDS011;40860;51.710;8.736;2023-05-07T06:50:22;20.60;;;17.50;;
54959;SDS011;40860;51.710;8.736;2023-05-07T06:54:29;21.13;;;17.52;;
54959;SDS011;40860;51.710;8.736;2023-05-07T06:58:32;21.08;;;17.65;;
54959;SDS011;40860;51.710;8.736;2023-05-07T07:02:36;19.00;;;17.00;;
54959;SDS011;40860;51.710;8.736;2023-05-07T07:06:40;18.70;;;16.33;;
54959;SDS011;40860;51.710;8.736;2023-05-07T07:10:46;21.98;;;16.45;;
54959;SDS011;40860;51.710;8.736;2023-05-07T07:14:49;19.20;;;16.13;;
54959;SDS011;40860;51.710;8.736;2023-05-07T07:18:53;19.25;;;16.30;;
54959;SDS011;40860;51.710;8.736;2023-05-07T07:22:57;17.30;;;15.50;;
54959;SDS011;40860;51.710;8.736;2023-05-07T07:27:01;17.35;;;15.15;;
54959;SDS011;40860;51.710;8.736;2023-05-07T07:31:05;18.65;;;15.05;;
54959;SDS011;40860;51.710;8.736;2023-05-07T07:35:08;17.15;;;14.32;;
54959;SDS011;40860;51.710;8.736;2023-05-07T07:39:14;16.95;;;15.07;;
54959;SDS011;40860;51.710;8.736;2023-05-07T07:43:18;17.92;;;14.02;;
54959;SDS011;40860;51.710;8.736;2023-05-07T07:47:21;15.88;;;14.23;;
54959;SDS011;40860;51.710;8.736;2023-05-07T07:51:26;15.50;;;13.75;;
54959;SDS011;40860;51.710;8.736;2023-05-07T07:55:31;15.18;;;13.63;;
54959;SDS011;40860;51.710;8.736;2023-05-07T07:59:34;14.98;;;12.88;;
54959;SDS011;40860;51.710;8.736;2023-05-07T08:03:38;13.45;;;12.02;;
54959;SDS011;40860;51.710;8.736;2023-05-07T08:07:45;13.95;;;12.52;;
54959;SDS011;40860;51.710;8.736;2023-05-07T08:11:57;13.32;;;11.93;;
54959;SDS011;40860;51.710;8.736;2023-05-07T08:16:00;13.07;;;11.52;;
54959;SDS011;40860;51.710;8.736;2023-05-07T08:20:03;13.00;;;11.55;;
54959;SDS011;40860;51.710;8.736;2023-05-07T08:24:07;13.07;;;11.27;;
54959;SDS011;40860;51.710;8.736;2023-05-07T08:28:12;12.65;;;10.93;;
54959;SDS011;40860;51.710;8.736;2023-05-07T08:32:15;13.13;;;11.80;;
54959;SDS011;40860;51.710;8.736;2023-05-07T08:36:18;12.57;;;11.27;;
54959;SDS011;40860;51.710;8.736;2023-05-07T08:40:21;12.98;;;11.57;;
54959;SDS011;40860;51.710;8.736;2023-05-07T08:44:31;12.57;;;11.27;;
54959;SDS011;40860;51.710;8.736;2023-05-07T08:48:36;13.30;;;11.23;;
54959;SDS011;40860;51.710;8.736;2023-05-07T08:52:44;12.63;;;11.32;;
54959;SDS011;40860;51.710;8.736;2023-05-07T08:56:48;12.75;;;11.40;;
54959;SDS011;40860;51.710;8.736;2023-05-07T09:00:53;12.63;;;11.32;;
54959;SDS011;40860;51.710;8.736;2023-05-07T09:04:57;12.50;;;11.20;;
54959;SDS011;40860;51.710;8.736;2023-05-07T09:09:00;12.50;;;11.20;;
54959;SDS011;40860;51.710;8.736;2023-05-07T09:13:04;12.05;;;10.77;;
54959;SDS011;40860;51.710;8.736;2023-05-07T09:17:09;11.68;;;10.48;;
54959;SDS011;40860;51.710;8.736;2023-05-07T09:21:17;11.40;;;10.20;;
54959;SDS011;40860;51.710;8.736;2023-05-07T09:25:27;11.60;;;10.32;;
54959;SDS011;40860;51.710;8.736;2023-05-07T09:29:32;12.05;;;10.77;;
54959;SDS011;40860;51.710;8.736;2023-05-07T09:33:39;11.13;;;10.02;;
54959;SDS011;40860;51.710;8.736;2023-05-07T09:37:44;10.75;;;9.75;;
54959;SDS011;40860;51.710;8.736;2023-05-07T09:41:49;10.35;;;9.35;;
54959;SDS011;40860;51.710;8.736;2023-05-07T09:46:05;11.02;;;9.93;;
54959;SDS011;40860;51.710;8.736;2023-05-07T09:50:16;11.30;;;9.73;;
54959;SDS011;40860;51.710;8.736;2023-05-07T09:54:21;10.90;;;9.80;;
54959;SDS011;40860;51.710;8.736;2023-05-07T09:58:27;11.60;;;10.50;;
54959;SDS011;40860;51.710;8.736;2023-05-07T10:02:31;12.75;;;10.32;;
54959;SDS011;40860;51.710;8.736;2023-05-07T10:06:39;12.18;;;10.93;;
54959;SDS011;40860;51.710;8.736;2023-05-07T10:10:44;10.88;;;9.77;;
54959;SDS011;40860;51.710;8.736;2023-05-07T10:14:51;11.25;;;10.05;;
54959;SDS011;40860;51.710;8.736;2023-05-07T10:18:58;9.70;;;8.80;;
54959;SDS011;40860;51.710;8.736;2023-05-07T10:23:03;10.57;;;9.50;;
54959;SDS011;40860;51.710;8.736;2023-05-07T10:27:14;9.48;;;8.50;;
54959;SDS011;40860;51.710;8.736;2023-05-07T10:31:29;10.05;;;9.05;;
54959;SDS011;40860;51.710;8.736;2023-05-07T10:35:45;9.82;;;8.82;;
54959;SDS011;40860;51.710;8.736;2023-05-07T10:39:52;10.77;;;9.68;;
54959;SDS011;40860;51.710;8.736;2023-05-07T10:43:56;11.02;;;9.93;;
54959;SDS011;40860;51.710;8.736;2023-05-07T10:48:10;11.88;;;10.45;;
54959;SDS011;40860;51.710;8.736;2023-05-07T10:52:34;11.07;;;9.15;;
54959;SDS011;40860;51.710;8.736;2023-05-07T10:56:43;9.68;;;8.77;;
54959;SDS011;40860;51.710;8.736;2023-05-07T11:05:19;10.43;;;9.30;;
54959;SDS011;40860;51.710;8.736;2023-05-07T11:09:54;9.38;;;8.50;;
54959;SDS011;40860;51.710;8.736;2023-05-07T11:14:15;9.70;;;8.80;;
54959;SDS011;40860;51.710;8.736;2023-05-07T11:18:52;9.48;;;8.52;;
54959;SDS011;40860;51.710;8.736;2023-05-07T11:23:10;10.18;;;9.25;;
54959;SDS011;40860;51.710;8.736;2023-05-07T11:28:03;9.52;;;8.52;;
54959;SDS011;40860;51.710;8.736;2023-05-07T11:32:09;9.18;;;8.38;;
54959;SDS011;40860;51.710;8.736;2023-05-07T11:36:22;9.10;;;8.20;;
54959;SDS011;40860;51.710;8.736;2023-05-07T11:40:27;7.93;;;7.13;;
54959;SDS011;40860;51.710;8.736;2023-05-07T11:44:41;8.40;;;7.60;;
54959;SDS011;40860;51.710;8.736;2023-05-07T11:48:45;8.10;;;7.40;;
54959;SDS011;40860;51.710;8.736;2023-05-07T11:52:50;8.55;;;7.68;;
54959;SDS011;40860;51.710;8.736;2023-05-07T11:56:54;6.90;;;6.30;;
54959;SDS011;40860;51.710;8.736;2023-05-07T12:01:00;7.30;;;6.60;;
54959;SDS011;40860;51.710;8.736;2023-05-07T12:05:05;7.00;;;6.40;;
54959;SDS011;40860;51.710;8.736;2023-05-07T12:09:08;6.90;;;6.30;;
54959;SDS011;40860;51.710;8.736;2023-05-07T12:13:15;7.22;;;6.38;;
54959;SDS011;40860;51.710;8.736;2023-05-07T12:17:19;6.60;;;6.10;;
54959;SDS011;40860;51.710;8.736;2023-05-07T12:21:23;8.32;;;6.45;;
54959;SDS011;40860;51.710;8.736;2023-05-07T12:25:26;7.00;;;6.40;;
54959;SDS011;40860;51.710;8.736;2023-05-07T12:29:32;6.25;;;5.75;;
54959;SDS011;40860;51.710;8.736;2023-05-07T12:33:34;6.07;;;5.57;;
54959;SDS011;40860;51.710;8.736;2023-05-07T12:37:39;5.50;;;5.00;;
54959;SDS011;40860;51.710;8.736;2023-05-07T12:41:52;5.90;;;5.35;;
54959;SDS011;40860;51.710;8.736;2023-05-07T12:45:57;5.60;;;5.20;;
54959;SDS011;40860;51.710;8.736;2023-05-07T12:50:02;6.50;;;5.88;;
54959;SDS011;40860;51.710;8.736;2023-05-07T12:54:09;6.25;;;5.65;;
54959;SDS011;40860;51.710;8.736;2023-05-07T12:58:15;6.18;;;5.68;;
54959;SDS011;40860;51.710;8.736;2023-05-07T13:02:18;6.10;;;5.50;;
54959;SDS011;40860;51.710;8.736;2023-05-07T13:06:21;6.57;;;5.88;;
54959;SDS011;40860;51.710;8.736;2023-05-07T13:10:26;6.55;;;5.85;;
54959;SDS011;40860;51.710;8.736;2023-05-07T13:14:29;6.18;;;5.57;;
54959;SDS011;40860;51.710;8.736;2023-05-07T13:18:33;5.70;;;5.15;;
54959;SDS011;40860;51.710;8.736;2023-05-07T13:22:37;7.20;;;6.55;;
54959;SDS011;40860;51.710;8.736;2023-05-07T13:26:41;7.95;;;5.85;;
54959;SDS011;40860;51.710;8.736;2023-05-07T13:30:46;6.82;;;6.10;;
54959;SDS011;40860;51.710;8.736;2023-05-07T13:34:49;7.18;;;6.47;;
54959;SDS011;40860;51.710;8.736;2023-05-07T13:38:52;6.63;;;5.85;;
54959;SDS011;40860;51.710;8.736;2023-05-07T13:42:56;7.72;;;7.03;;
54959;SDS011;40860;51.710;8.736;2023-05-07T13:47:00;8.20;;;7.03;;
54959;SDS011;40860;51.710;8.736;2023-05-07T13:51:03;7.18;;;6.57;;
54959;SDS011;40860;51.710;8.736;2023-05-07T13:55:06;8.35;;;7.55;;
54959;SDS011;40860;51.710;8.736;2023-05-07T13:59:11;7.88;;;7.18;;
54959;SDS011;40860;51.710;8.736;2023-05-07T14:03:15;8.98;;;7.50;;
54959;SDS011;40860;51.710;8.736;2023-05-07T14:07:18;8.52;;;7.75;;
54959;SDS011;40860;51.710;8.736;2023-05-07T14:11:21;9.80;;;8.90;;
54959;SDS011;40860;51.710;8.736;2023-05-07T14:15:25;9.75;;;8.85;;
54959;SDS011;40860;51.710;8.736;2023-05-07T14:19:28;9.52;;;8.70;;
54959;SDS011;40860;51.710;8.736;2023-05-07T14:23:32;10.63;;;9.60;;
54959;SDS011;40860;51.710;8.736;2023-05-07T14:27:35;8.88;;;8.07;;
54959;SDS011;40860;51.710;8.736;2023-05-07T14:31:40;9.95;;;8.98;;
54959;SDS011;40860;51.710;8.736;2023-05-07T14:35:43;10.52;;;9.60;;
54959;SDS011;40860;51.710;8.736;2023-05-07T14:39:56;10.05;;;9.15;;
54959;SDS011;40860;51.710;8.736;2023-05-07T14:43:59;10.32;;;9.43;;
54959;SDS011;40860;51.710;8.736;2023-05-07T14:48:06;11.45;;;10.35;;
54959;SDS011;40860;51.710;8.736;2023-05-07T14:52:10;10.65;;;9.57;;
54959;SDS011;40860;51.710;8.736;2023-05-07T14:56:13;12.43;;;11.20;;
54959;SDS011;40860;51.710;8.736;2023-05-07T15:00:16;12.85;;;10.80;;
54959;SDS011;40860;51.710;8.736;2023-05-07T15:04:24;11.32;;;10.23;;
54959;SDS011;40860;51.710;8.736;2023-05-07T15:08:28;12.10;;;11.00;;
54959;SDS011;40860;51.710;8.736;2023-05-07T15:12:31;13.30;;;11.98;;
54959;SDS011;40860;51.710;8.736;2023-05-07T15:16:34;12.85;;;11.63;;
54959;SDS011;40860;51.710;8.736;2023-05-07T15:20:38;12.82;;;11.60;;
54959;SDS011;40860;51.710;8.736;2023-05-07T15:24:42;13.40;;;12.20;;
54959;SDS011;40860;51.710;8.736;2023-05-07T15:28:48;13.25;;;12.02;;
54959;SDS011;40860;51.710;8.736;2023-05-07T15:32:57;13.90;;;12.50;;
54959;SDS011;40860;51.710;8.736;2023-05-07T15:37:05;14.07;;;12.80;;
54959;SDS011;40860;51.710;8.736;2023-05-07T15:41:08;13.73;;;12.48;;
54959;SDS011;40860;51.710;8.736;2023-05-07T15:45:11;14.30;;;13.00;;
54959;SDS011;40860;51.710;8.736;2023-05-07T15:49:15;14.00;;;12.23;;
54959;SDS011;40860;51.710;8.736;2023-05-07T15:53:20;13.75;;;12.40;;
54959;SDS011;40860;51.710;8.736;2023-05-07T15:57:23;13.77;;;12.15;;
54959;SDS011;40860;51.710;8.736;2023-05-07T16:01:27;13.98;;;12.50;;
54959;SDS011;40860;51.710;8.736;2023-05-07T16:05:30;13.63;;;12.23;;
54959;SDS011;40860;51.710;8.736;2023-05-07T16:09:35;13.32;;;12.02;;
54959;SDS011;40860;51.710;8.736;2023-05-07T16:13:38;13.27;;;11.98;;
54959;SDS011;40860;51.710;8.736;2023-05-07T16:17:44;12.07;;;10.98;;
54959;SDS011;40860;51.710;8.736;2023-05-07T16:21:47;12.57;;;11.40;;
54959;SDS011;40860;51.710;8.736;2023-05-07T16:25:52;13.38;;;12.10;;
54959;SDS011;40860;51.710;8.736;2023-05-07T16:29:56;12.80;;;11.57;;
54959;SDS011;40860;51.710;8.736;2023-05-07T16:33:59;13.35;;;12.15;;
54959;SDS011;40860;51.710;8.736;2023-05-07T16:38:02;13.02;;;11.73;;
54959;SDS011;40860;51.710;8.736;2023-05-07T16:42:14;13.10;;;11.73;;
54959;SDS011;40860;51.710;8.736;2023-05-07T16:46:17;12.90;;;11.60;;
54959;SDS011;40860;51.710;8.736;2023-05-07T16:50:21;13.13;;;11.93;;
54959;SDS011;40860;51.710;8.736;2023-05-07T16:54:24;12.07;;;10.88;;
54959;SDS011;40860;51.710;8.736;2023-05-07T16:58:28;13.07;;;11.70;;
54959;SDS011;40860;51.710;8.736;2023-05-07T17:02:32;12.93;;;11.63;;
54959;SDS011;40860;51.710;8.736;2023-05-07T17:06:38;12.68;;;11.48;;
54959;SDS011;40860;51.710;8.736;2023-05-07T17:10:43;13.25;;;12.05;;
54959;SDS011;40860;51.710;8.736;2023-05-07T17:14:48;12.20;;;11.00;;
54959;SDS011;40860;51.710;8.736;2023-05-07T17:18:51;11.75;;;10.65;;
54959;SDS011;40860;51.710;8.736;2023-05-07T17:22:54;12.32;;;11.07;;
54959;SDS011;40860;51.710;8.736;2023-05-07T17:26:58;12.00;;;10.90;;
54959;SDS011;40860;51.710;8.736;2023-05-07T17:31:03;11.77;;;10.60;;
54959;SDS011;40860;51.710;8.736;2023-05-07T17:35:07;11.98;;;10.82;;
54959;SDS011;40860;51.710;8.736;2023-05-07T17:39:10;12.05;;;10.95;;
54959;SDS011;40860;51.710;8.736;2023-05-07T17:43:14;12.18;;;10.85;;
54959;SDS011;40860;51.710;8.736;2023-05-07T17:47:19;12.88;;;11.68;;
54959;SDS011;40860;51.710;8.736;2023-05-07T17:51:25;12.70;;;11.55;;
54959;SDS011;40860;51.710;8.736;2023-05-07T17:55:58;12.70;;;11.40;;
54959;SDS011;40860;51.710;8.736;2023-05-07T18:00:03;12.10;;;11.00;;
54959;SDS011;40860;51.710;8.736;2023-05-07T18:04:10;12.82;;;11.50;;
54959;SDS011;40860;51.710;8.736;2023-05-07T18:08:13;12.30;;;11.10;;
54959;SDS011;40860;51.710;8.736;2023-05-07T18:12:18;12.45;;;11.25;;
54959;SDS011;40860;51.710;8.736;2023-05-07T18:16:22;11.90;;;10.80;;
54959;SDS011;40860;51.710;8.736;2023-05-07T18:20:26;11.90;;;10.70;;
54959;SDS011;40860;51.710;8.736;2023-05-07T18:24:34;11.98;;;10.77;;
54959;SDS011;40860;51.710;8.736;2023-05-07T18:28:45;11.80;;;10.60;;
54959;SDS011;40860;51.710;8.736;2023-05-07T18:32:49;12.07;;;10.98;;
54959;SDS011;40860;51.710;8.736;2023-05-07T18:36:53;11.73;;;10.63;;
54959;SDS011;40860;51.710;8.736;2023-05-07T18:40:59;11.60;;;10.57;;
54959;SDS011;40860;51.710;8.736;2023-05-07T18:45:03;11.55;;;10.48;;
54959;SDS011;40860;51.710;8.736;2023-05-07T18:49:06;11.30;;;10.18;;
54959;SDS011;40860;51.710;8.736;2023-05-07T18:53:13;11.27;;;10.38;;
54959;SDS011;40860;51.710;8.736;2023-05-07T18:57:16;11.77;;;10.77;;
54959;SDS011;40860;51.710;8.736;2023-05-07T19:01:19;11.45;;;10.35;;
54959;SDS011;40860;51.710;8.736;2023-05-07T19:05:22;11.48;;;10.38;;
54959;SDS011;40860;51.710;8.736;2023-05-07T19:09:27;10.60;;;9.70;;
54959;SDS011;40860;51.710;8.736;2023-05-07T19:13:35;10.48;;;9.57;;
54959;SDS011;40860;51.710;8.736;2023-05-07T19:17:38;9.75;;;8.95;;
54959;SDS011;40860;51.710;8.736;2023-05-07T19:21:42;10.38;;;9.48;;
54959;SDS011;40860;51.710;8.736;2023-05-07T19:25:55;10.15;;;9.25;;
54959;SDS011;40860;51.710;8.736;2023-05-07T19:29:59;9.93;;;9.13;;
54959;SDS011;40860;51.710;8.736;2023-05-07T19:34:02;9.70;;;8.90;;
54959;SDS011;40860;51.710;8.736;2023-05-07T19:38:05;9.93;;;9.07;;
54959;SDS011;40860;51.710;8.736;2023-05-07T19:42:10;9.85;;;8.95;;
54959;SDS011;40860;51.710;8.736;2023-05-07T19:46:14;10.30;;;9.40;;
54959;SDS011;40860;51.710;8.736;2023-05-07T19:50:18;10.00;;;9.20;;
54959;SDS011;40860;51.710;8.736;2023-05-07T19:54:22;9.82;;;9.00;;
54959;SDS011;40860;51.710;8.736;2023-05-07T19:58:27;9.70;;;8.90;;
54959;SDS011;40860;51.710;8.736;2023-05-07T20:02:30;9.90;;;9.05;;
54959;SDS011;40860;51.710;8.736;2023-05-07T20:06:33;9.88;;;9.00;;
54959;SDS011;40860;51.710;8.736;2023-05-07T20:10:36;9.80;;;8.88;;
54959;SDS011;40860;51.710;8.736;2023-05-07T20:14:41;9.10;;;8.30;;
54959;SDS011;40860;51.710;8.736;2023-05-07T20:18:44;9.57;;;8.77;;
54959;SDS011;40860;51.710;8.736;2023-05-07T20:22:53;9.05;;;8.25;;
54959;SDS011;40860;51.710;8.736;2023-05-07T20:26:56;8.57;;;7.88;;
54959;SDS011;40860;51.710;8.736;2023-05-07T20:31:01;8.95;;;8.20;;
54959;SDS011;40860;51.710;8.736;2023-05-07T20:35:04;8.90;;;8.20;;
54959;SDS011;40860;51.710;8.736;2023-05-07T20:39:09;9.48;;;8.15;;
54959;SDS011;40860;51.710;8.736;2023-05-07T20:43:22;9.10;;;8.20;;
54959;SDS011;40860;51.710;8.736;2023-05-07T20:47:27;9.00;;;8.10;;
54959;SDS011;40860;51.710;8.736;2023-05-07T20:51:33;8.90;;;8.10;;
54959;SDS011;40860;51.710;8.736;2023-05-07T20:55:37;9.80;;;8.80;;
54959;SDS011;40860;51.710;8.736;2023-05-07T20:59:44;9.27;;;8.35;;
54959;SDS011;40860;51.710;8.736;2023-05-07T21:03:49;10.60;;;8.57;;
54959;SDS011;40860;51.710;8.736;2023-05-07T21:07:54;9.70;;;8.80;;
54959;SDS011;40860;51.710;8.736;2023-05-07T21:11:58;9.30;;;8.48;;
54959;SDS011;40860;51.710;8.736;2023-05-07T21:16:01;9.85;;;8.93;;
54959;SDS011;40860;51.710;8.736;2023-05-07T21:20:06;9.30;;;8.50;;
54959;SDS011;40860;51.710;8.736;2023-05-07T21:24:11;9.50;;;8.65;;
54959;SDS011;40860;51.710;8.736;2023-05-07T21:28:13;9.77;;;8.77;;
54959;SDS011;40860;51.710;8.736;2023-05-07T21:32:20;10.27;;;9.38;;
54959;SDS011;40860;51.710;8.736;2023-05-07T21:36:28;9.23;;;8.38;;
54959;SDS011;40860;51.710;8.736;2023-05-07T21:40:31;10.27;;;8.90;;
54959;SDS011;40860;51.710;8.736;2023-05-07T21:44:43;9.18;;;8.15;;
54959;SDS011;40860;51.710;8.736;2023-05-07T21:48:52;9.57;;;8.52;;
54959;SDS011;40860;51.710;8.736;2023-05-07T21:52:59;9.35;;;8.35;;
54959;SDS011;40860;51.710;8.736;2023-05-07T21:57:02;9.48;;;8.52;;
54959;SDS011;40860;51.710;8.736;2023-05-07T22:01:04;9.05;;;8.15;;
54959;SDS011;40860;51.710;8.736;2023-05-07T22:05:09;8.77;;;7.97;;
54959;SDS011;40860;51.710;8.736;2023-05-07T22:09:13;9.75;;;8.75;;
54959;SDS011;40860;51.710;8.736;2023-05-07T22:13:16;9.80;;;8.90;;
54959;SDS011;40860;51.710;8.736;2023-05-07T22:17:19;8.77;;;7.90;;
54959;SDS011;40860;51.710;8.736;2023-05-07T22:21:24;9.00;;;8.20;;
54959;SDS011;40860;51.710;8.736;2023-05-07T22:25:30;9.43;;;8.52;;
54959;SDS011;40860;51.710;8.736;2023-05-07T22:29:39;9.38;;;8.38;;
54959;SDS011;40860;51.710;8.736;2023-05-07T22:33:42;9.57;;;8.57;;
54959;SDS011;40860;51.710;8.736;2023-05-07T22:37:45;8.57;;;7.78;;
54959;SDS011;40860;51.710;8.736;2023-05-07T22:41:49;9.13;;;8.25;;
54959;SDS011;40860;51.710;8.736;2023-05-07T22:45:56;8.45;;;7.75;;
54959;SDS011;40860;51.710;8.736;2023-05-07T22:50:00;8.13;;;7.43;;
54959;SDS011;40860;51.710;8.736;2023-05-07T22:54:05;8.43;;;7.63;;
54959;SDS011;40860;51.710;8.736;2023-05-07T22:58:10;8.80;;;8.00;;
54959;SDS011;40860;51.710;8.736;2023-05-07T23:02:13;8.82;;;7.93;;
54959;SDS011;40860;51.710;8.736;2023-05-07T23:06:16;8.85;;;8.05;;
54959;SDS011;40860;51.710;8.736;2023-05-07T23:10:19;8.15;;;7.35;;
54959;SDS011;40860;51.710;8.736;2023-05-07T23:14:23;8.50;;;7.28;;
54959;SDS011;40860;51.710;8.736;2023-05-07T23:18:26;7.88;;;7.20;;
54959;SDS011;40860;51.710;8.736;2023-05-07T23:22:30;8.18;;;7.40;;
54959;SDS011;40860;51.710;8.736;2023-05-07T23:26:33;7.70;;;7.00;;
54959;SDS011;40860;51.710;8.736;2023-05-07T23:30:38;7.32;;;6.72;;
54959;SDS011;40860;51.710;8.736;2023-05-07T23:34:41;7.93;;;6.75;;
54959;SDS011;40860;51.710;8.736;2023-05-07T23:38:44;8.20;;;7.40;;
54959;SDS011;40860;51.710;8.736;2023-05-07T23:42:47;7.80;;;7.07;;
54959;SDS011;40860;51.710;8.736;2023-05-07T23:46:51;7.72;;;7.00;;
54959;SDS011;40860;51.710;8.736;2023-05-07T23:50:54;7.60;;;6.90;;
54959;SDS011;40860;51.710;8.736;2023-05-07T23:54:57;7.95;;;7.15;;
54959;SDS011;40860;51.710;8.736;2023-05-07T23:59:00;7.38;;;6.78;;
